createdAt,value
2019-06-26T00:01:25.429Z,20.6
2019-06-26T00:11:25.238Z,20.0
2019-06-26T00:21:25.355Z,23.1
2019-06-26T00:31:25.402Z,22.7
2019-06-26T00:41:26.703Z,22.6
2019-06-26T00:51:25.442Z,23.3
2019-06-26T01:01:25.542Z,22.7
2019-06-26T01:11:27.040Z,22.4
2019-06-26T01:21:24.998Z,23.8
2019-06-26T01:31:24.962Z,23.8
2019-06-26T01:41:27.495Z,23.5
2019-06-26T01:51:25.920Z,23.7
2019-06-26T02:01:25.046Z,22.1
2019-06-26T02:11:25.679Z,22.4
2019-06-26T02:21:26.164Z,21.8
2019-06-26T02:31:24.723Z,23.9
2019-06-26T02:41:25.449Z,22.5
2019-06-26T02:51:26.583Z,23.6
2019-06-26T03:01:26.011Z,24.1
2019-06-26T03:11:25.557Z,23.2
2019-06-26T03:21:25.669Z,24.7
2019-06-26T03:31:26.402Z,23.8
2019-06-26T03:41:25.036Z,22.3
2019-06-26T03:51:24.765Z,23.4
2019-06-26T04:01:26.529Z,23.4
2019-06-26T04:11:25.328Z,23.7
2019-06-26T04:21:25.593Z,24.0
2019-06-26T04:31:25.821Z,23.0
2019-06-26T04:41:25.616Z,23.0
2019-06-26T04:51:28.309Z,24.1
2019-06-26T05:01:25.058Z,24.3
2019-06-26T05:11:26.672Z,23.1
2019-06-26T05:21:26.533Z,21.0
2019-06-26T05:31:25.857Z,21.5
2019-06-26T05:41:25.671Z,19.7
2019-06-26T05:51:25.888Z,19.0
2019-06-26T06:01:25.595Z,18.3
2019-06-26T06:11:27.175Z,18.7
2019-06-26T06:21:25.219Z,16.6
2019-06-26T06:31:25.093Z,14.5
2019-06-26T06:41:25.127Z,13.2
2019-06-26T06:51:25.180Z,13.0
2019-06-26T07:01:25.602Z,12.7
2019-06-26T07:11:26.049Z,12.4
2019-06-26T07:21:26.161Z,13.0
2019-06-26T07:31:26.303Z,13.0
2019-06-26T07:41:25.302Z,12.7
2019-06-26T07:51:25.386Z,12.1
2019-06-26T08:01:26.332Z,11.4
2019-06-26T08:11:25.028Z,10.9
2019-06-26T08:21:25.009Z,9.4
2019-06-26T08:31:29.878Z,9.1
2019-06-26T08:41:26.534Z,10.9
2019-06-26T08:51:25.236Z,10.4
2019-06-26T09:01:25.197Z,10.7
2019-06-26T09:11:25.336Z,10.1
2019-06-26T09:21:25.688Z,10.1
2019-06-26T09:31:26.029Z,9.8
2019-06-26T09:41:25.004Z,10.1
2019-06-26T09:51:24.745Z,9.5
2019-06-26T10:01:28.606Z,9.9
2019-06-26T10:11:25.400Z,9.3
2019-06-26T10:21:25.316Z,9.4
2019-06-26T10:31:25.006Z,8.0
2019-06-26T10:41:25.793Z,5.9
2019-06-26T10:51:26.109Z,7.5
2019-06-26T11:01:26.779Z,6.6
2019-06-26T11:11:25.566Z,6.9
2019-06-26T11:21:26.281Z,6.7
2019-06-26T11:31:25.345Z,6.1
2019-06-26T11:41:26.017Z,7.0
2019-06-26T11:51:27.545Z,6.6
2019-06-26T12:01:25.797Z,7.0
2019-06-26T12:11:25.545Z,7.1
2019-06-26T12:21:25.572Z,6.9
2019-06-26T12:31:26.454Z,6.2
2019-06-26T12:41:25.455Z,5.8
2019-06-26T12:51:25.379Z,6.7
2019-06-26T13:01:25.479Z,6.3
2019-06-26T13:11:25.415Z,6.8
2019-06-26T13:21:25.353Z,6.8
2019-06-26T13:31:25.564Z,6.9
2019-06-26T13:41:25.381Z,6.7
2019-06-26T13:51:25.716Z,6.5
2019-06-26T14:01:25.420Z,6.4
2019-06-26T14:11:25.350Z,7.4
2019-06-26T14:21:26.337Z,7.1
2019-06-26T14:31:25.424Z,7.0
2019-06-26T14:41:25.771Z,6.7
2019-06-26T14:51:37.707Z,7.2
2019-06-26T15:01:26.063Z,7.6
2019-06-26T15:11:25.051Z,7.5
2019-06-26T15:21:26.049Z,8.2
2019-06-26T15:31:26.086Z,7.4
2019-06-26T15:41:26.453Z,8.0
2019-06-26T15:51:25.544Z,7.3
2019-06-26T16:01:27.357Z,6.8
2019-06-26T16:11:27.441Z,7.0
2019-06-26T16:21:25.487Z,6.4
2019-06-26T16:31:26.435Z,6.6
2019-06-26T16:41:25.176Z,5.5
2019-06-26T16:51:25.117Z,5.7
2019-06-26T17:01:26.832Z,5.6
2019-06-26T17:11:26.284Z,5.5
2019-06-26T17:21:25.541Z,4.9
2019-06-26T17:31:25.304Z,5.8
2019-06-26T17:41:26.228Z,5.5
2019-06-26T17:51:26.379Z,5.4
2019-06-26T18:01:30.619Z,5.5
2019-06-26T18:11:26.174Z,5.7
2019-06-26T18:21:25.291Z,5.3
2019-06-26T18:31:25.504Z,6.2
2019-06-26T18:41:26.205Z,5.4
2019-06-26T18:51:25.672Z,6.5
2019-06-26T19:01:26.623Z,6.8
2019-06-26T19:11:26.202Z,7.0
2019-06-26T19:21:25.343Z,7.7
2019-06-26T19:31:25.657Z,7.4
2019-06-26T19:41:25.460Z,8.4
2019-06-26T19:51:25.494Z,7.7
2019-06-26T20:01:25.630Z,8.7
2019-06-26T20:11:26.290Z,8.2
2019-06-26T20:21:27.816Z,10.3
2019-06-26T20:31:26.053Z,8.6
2019-06-26T20:41:24.830Z,9.5
2019-06-26T20:51:25.806Z,9.7
2019-06-26T21:01:25.883Z,10.3
2019-06-26T21:11:27.065Z,9.5
2019-06-26T21:21:24.989Z,9.3
2019-06-26T21:31:26.953Z,9.5
2019-06-26T21:41:27.441Z,9.9
2019-06-26T21:51:26.020Z,8.8
2019-06-26T22:01:24.792Z,8.7
2019-06-26T22:11:26.463Z,8.4
2019-06-26T22:21:25.993Z,9.5
2019-06-26T22:31:25.705Z,9.1
2019-06-26T22:41:25.368Z,8.8
2019-06-26T22:51:26.128Z,8.5
2019-06-26T23:01:27.005Z,8.5
2019-06-26T23:11:25.805Z,9.3
2019-06-26T23:21:25.675Z,7.7
2019-06-26T23:31:26.045Z,8.1
2019-06-26T23:41:25.679Z,8.4
2019-06-26T23:51:25.511Z,8.5
